sensor_id;sensor_type;location;lat;lon;timestamp;P1;durP1;ratioP1;P2;durP2;ratioP2
40675;SDS011;26359;48.750;9.314;2022-07-29T00:00:40;8.25;;;7.45;;
40675;SDS011;26359;48.750;9.314;2022-07-29T00:03:09;8.68;;;7.88;;
40675;SDS011;26359;48.750;9.314;2022-07-29T00:05:35;8.23;;;7.43;;
40675;SDS011;26359;48.750;9.314;2022-07-29T00:08:00;10.05;;;7.60;;
40675;SDS011;26359;48.750;9.314;2022-07-29T00:10:26;8.20;;;7.50;;
40675;SDS011;26359;48.750;9.314;2022-07-29T00:12:52;8.43;;;7.63;;
40675;SDS011;26359;48.750;9.314;2022-07-29T00:15:18;8.73;;;7.90;;
40675;SDS011;26359;48.750;9.314;2022-07-29T00:17:43;8.15;;;7.13;;
40675;SDS011;26359;48.750;9.314;2022-07-29T00:20:09;8.15;;;7.45;;
40675;SDS011;26359;48.750;9.314;2022-07-29T00:22:37;8.10;;;7.40;;
40675;SDS011;26359;48.750;9.314;2022-07-29T00:25:03;10.40;;;7.68;;
40675;SDS011;26359;48.750;9.314;2022-07-29T00:27:29;7.40;;;6.68;;
40675;SDS011;26359;48.750;9.314;2022-07-29T00:29:55;9.73;;;7.95;;
40675;SDS011;26359;48.750;9.314;2022-07-29T00:32:21;7.60;;;6.97;;
40675;SDS011;26359;48.750;9.314;2022-07-29T00:34:46;8.50;;;7.70;;
40675;SDS011;26359;48.750;9.314;2022-07-29T00:37:30;8.10;;;7.13;;
40675;SDS011;26359;48.750;9.314;2022-07-29T00:39:56;7.88;;;7.18;;
40675;SDS011;26359;48.750;9.314;2022-07-29T00:42:21;7.90;;;7.20;;
40675;SDS011;26359;48.750;9.314;2022-07-29T00:44:47;7.75;;;6.70;;
40675;SDS011;26359;48.750;9.314;2022-07-29T00:47:13;7.88;;;7.15;;
40675;SDS011;26359;48.750;9.314;2022-07-29T00:49:39;8.77;;;7.88;;
40675;SDS011;26359;48.750;9.314;2022-07-29T00:52:06;8.20;;;6.90;;
40675;SDS011;26359;48.750;9.314;2022-07-29T00:54:32;8.30;;;7.43;;
40675;SDS011;26359;48.750;9.314;2022-07-29T00:56:59;7.70;;;6.90;;
40675;SDS011;26359;48.750;9.314;2022-07-29T00:59:25;8.05;;;7.45;;
40675;SDS011;26359;48.750;9.314;2022-07-29T01:01:52;7.70;;;7.03;;
40675;SDS011;26359;48.750;9.314;2022-07-29T01:04:18;8.05;;;7.25;;
40675;SDS011;26359;48.750;9.314;2022-07-29T01:06:45;8.02;;;7.25;;
40675;SDS011;26359;48.750;9.314;2022-07-29T01:09:12;8.35;;;7.65;;
40675;SDS011;26359;48.750;9.314;2022-07-29T01:11:38;8.35;;;7.55;;
40675;SDS011;26359;48.750;9.314;2022-07-29T01:14:05;8.15;;;7.38;;
40675;SDS011;26359;48.750;9.314;2022-07-29T01:16:33;8.38;;;7.68;;
40675;SDS011;26359;48.750;9.314;2022-07-29T01:22:18;7.60;;;6.90;;
40675;SDS011;26359;48.750;9.314;2022-07-29T01:25:02;8.18;;;7.47;;
40675;SDS011;26359;48.750;9.314;2022-07-29T01:27:41;7.67;;;6.87;;
40675;SDS011;26359;48.750;9.314;2022-07-29T01:30:16;7.75;;;6.90;;
40675;SDS011;26359;48.750;9.314;2022-07-29T01:32:42;7.75;;;7.05;;
40675;SDS011;26359;48.750;9.314;2022-07-29T01:35:15;7.40;;;6.80;;
40675;SDS011;26359;48.750;9.314;2022-07-29T01:37:50;8.05;;;7.25;;
40675;SDS011;26359;48.750;9.314;2022-07-29T01:40:24;8.40;;;7.57;;
40675;SDS011;26359;48.750;9.314;2022-07-29T01:42:54;8.80;;;8.20;;
40675;SDS011;26359;48.750;9.314;2022-07-29T01:45:23;7.32;;;6.72;;
40675;SDS011;26359;48.750;9.314;2022-07-29T01:50:22;8.77;;;8.07;;
40675;SDS011;26359;48.750;9.314;2022-07-29T01:53:02;10.45;;;9.55;;
40675;SDS011;26359;48.750;9.314;2022-07-29T01:55:32;8.18;;;7.47;;
40675;SDS011;26359;48.750;9.314;2022-07-29T01:58:01;8.55;;;7.68;;
40675;SDS011;26359;48.750;9.314;2022-07-29T02:00:29;6.68;;;6.07;;
40675;SDS011;26359;48.750;9.314;2022-07-29T02:02:56;7.90;;;6.65;;
40675;SDS011;26359;48.750;9.314;2022-07-29T02:05:25;6.82;;;6.25;;
40675;SDS011;26359;48.750;9.314;2022-07-29T02:07:53;8.32;;;7.28;;
40675;SDS011;26359;48.750;9.314;2022-07-29T02:10:21;6.90;;;6.32;;
40675;SDS011;26359;48.750;9.314;2022-07-29T02:12:48;7.50;;;6.80;;
40675;SDS011;26359;48.750;9.314;2022-07-29T02:15:16;6.75;;;6.15;;
40675;SDS011;26359;48.750;9.314;2022-07-29T02:17:55;10.25;;;6.82;;
40675;SDS011;26359;48.750;9.314;2022-07-29T02:20:25;7.78;;;7.05;;
40675;SDS011;26359;48.750;9.314;2022-07-29T02:22:51;8.15;;;7.35;;
40675;SDS011;26359;48.750;9.314;2022-07-29T02:25:17;8.32;;;7.22;;
40675;SDS011;26359;48.750;9.314;2022-07-29T02:27:44;9.02;;;8.13;;
40675;SDS011;26359;48.750;9.314;2022-07-29T02:30:11;7.03;;;6.43;;
40675;SDS011;26359;48.750;9.314;2022-07-29T02:32:38;8.02;;;7.30;;
40675;SDS011;26359;48.750;9.314;2022-07-29T02:35:07;7.68;;;6.80;;
40675;SDS011;26359;48.750;9.314;2022-07-29T02:37:33;7.18;;;6.68;;
40675;SDS011;26359;48.750;9.314;2022-07-29T02:40:01;6.43;;;5.80;;
40675;SDS011;26359;48.750;9.314;2022-07-29T02:42:27;6.85;;;6.18;;
40675;SDS011;26359;48.750;9.314;2022-07-29T02:44:54;6.70;;;6.10;;
40675;SDS011;26359;48.750;9.314;2022-07-29T02:47:24;7.82;;;5.63;;
40675;SDS011;26359;48.750;9.314;2022-07-29T02:50:09;6.45;;;5.85;;
40675;SDS011;26359;48.750;9.314;2022-07-29T02:52:42;6.93;;;6.32;;
40675;SDS011;26359;48.750;9.314;2022-07-29T02:55:45;6.50;;;5.90;;
40675;SDS011;26359;48.750;9.314;2022-07-29T02:58:15;6.80;;;6.20;;
40675;SDS011;26359;48.750;9.314;2022-07-29T03:00:44;7.07;;;6.47;;
40675;SDS011;26359;48.750;9.314;2022-07-29T03:03:13;6.35;;;5.72;;
40675;SDS011;26359;48.750;9.314;2022-07-29T03:05:41;6.38;;;5.57;;
40675;SDS011;26359;48.750;9.314;2022-07-29T03:08:09;6.20;;;5.78;;
40675;SDS011;26359;48.750;9.314;2022-07-29T03:10:36;8.57;;;5.70;;
40675;SDS011;26359;48.750;9.314;2022-07-29T03:13:03;6.82;;;6.32;;
40675;SDS011;26359;48.750;9.314;2022-07-29T03:15:30;7.10;;;6.38;;
40675;SDS011;26359;48.750;9.314;2022-07-29T03:17:57;7.38;;;6.70;;
40675;SDS011;26359;48.750;9.314;2022-07-29T03:20:24;7.15;;;6.45;;
40675;SDS011;26359;48.750;9.314;2022-07-29T03:22:51;9.23;;;8.35;;
40675;SDS011;26359;48.750;9.314;2022-07-29T03:25:18;6.10;;;5.50;;
40675;SDS011;26359;48.750;9.314;2022-07-29T03:27:44;7.60;;;6.90;;
40675;SDS011;26359;48.750;9.314;2022-07-29T03:30:11;7.20;;;6.60;;
40675;SDS011;26359;48.750;9.314;2022-07-29T03:32:38;7.25;;;6.65;;
40675;SDS011;26359;48.750;9.314;2022-07-29T03:35:04;6.75;;;6.18;;
40675;SDS011;26359;48.750;9.314;2022-07-29T03:37:31;8.73;;;8.05;;
40675;SDS011;26359;48.750;9.314;2022-07-29T03:39:58;7.68;;;6.50;;
40675;SDS011;26359;48.750;9.314;2022-07-29T03:42:27;7.00;;;6.10;;
40675;SDS011;26359;48.750;9.314;2022-07-29T03:44:55;9.13;;;7.20;;
40675;SDS011;26359;48.750;9.314;2022-07-29T03:47:25;7.05;;;6.45;;
40675;SDS011;26359;48.750;9.314;2022-07-29T03:49:54;8.10;;;7.30;;
40675;SDS011;26359;48.750;9.314;2022-07-29T03:52:25;7.93;;;6.28;;
40675;SDS011;26359;48.750;9.314;2022-07-29T03:54:50;6.55;;;6.05;;
40675;SDS011;26359;48.750;9.314;2022-07-29T03:57:16;7.10;;;5.70;;
40675;SDS011;26359;48.750;9.314;2022-07-29T03:59:45;6.40;;;5.90;;
40675;SDS011;26359;48.750;9.314;2022-07-29T04:02:11;7.18;;;6.50;;
40675;SDS011;26359;48.750;9.314;2022-07-29T04:04:37;7.38;;;6.78;;
40675;SDS011;26359;48.750;9.314;2022-07-29T04:07:03;7.20;;;6.50;;
40675;SDS011;26359;48.750;9.314;2022-07-29T04:09:29;7.53;;;6.78;;
40675;SDS011;26359;48.750;9.314;2022-07-29T04:11:55;7.75;;;7.15;;
40675;SDS011;26359;48.750;9.314;2022-07-29T04:14:21;7.97;;;7.20;;
40675;SDS011;26359;48.750;9.314;2022-07-29T04:16:46;6.88;;;6.28;;
40675;SDS011;26359;48.750;9.314;2022-07-29T04:19:12;7.13;;;6.22;;
40675;SDS011;26359;48.750;9.314;2022-07-29T04:21:38;8.20;;;7.43;;
40675;SDS011;26359;48.750;9.314;2022-07-29T04:24:04;8.95;;;8.15;;
40675;SDS011;26359;48.750;9.314;2022-07-29T04:26:30;9.32;;;8.63;;
40675;SDS011;26359;48.750;9.314;2022-07-29T04:28:55;8.57;;;7.78;;
40675;SDS011;26359;48.750;9.314;2022-07-29T04:31:21;8.32;;;7.53;;
40675;SDS011;26359;48.750;9.314;2022-07-29T04:33:46;7.93;;;7.32;;
40675;SDS011;26359;48.750;9.314;2022-07-29T04:36:12;7.85;;;7.20;;
40675;SDS011;26359;48.750;9.314;2022-07-29T04:38:38;8.15;;;7.45;;
40675;SDS011;26359;48.750;9.314;2022-07-29T04:41:03;8.48;;;7.65;;
40675;SDS011;26359;48.750;9.314;2022-07-29T04:43:29;7.43;;;6.82;;
40675;SDS011;26359;48.750;9.314;2022-07-29T04:45:55;7.63;;;7.03;;
40675;SDS011;26359;48.750;9.314;2022-07-29T04:48:21;9.50;;;8.68;;
40675;SDS011;26359;48.750;9.314;2022-07-29T04:50:46;8.75;;;7.95;;
40675;SDS011;26359;48.750;9.314;2022-07-29T04:53:12;8.43;;;7.82;;
40675;SDS011;26359;48.750;9.314;2022-07-29T04:55:37;7.13;;;6.53;;
40675;SDS011;26359;48.750;9.314;2022-07-29T04:58:03;8.35;;;6.82;;
40675;SDS011;26359;48.750;9.314;2022-07-29T05:00:29;7.40;;;6.70;;
40675;SDS011;26359;48.750;9.314;2022-07-29T05:02:54;6.97;;;6.38;;
40675;SDS011;26359;48.750;9.314;2022-07-29T05:05:20;6.85;;;6.22;;
40675;SDS011;26359;48.750;9.314;2022-07-29T05:07:45;7.30;;;6.45;;
40675;SDS011;26359;48.750;9.314;2022-07-29T05:10:10;7.00;;;6.43;;
40675;SDS011;26359;48.750;9.314;2022-07-29T05:12:36;8.25;;;7.45;;
40675;SDS011;26359;48.750;9.314;2022-07-29T05:15:02;7.82;;;6.97;;
40675;SDS011;26359;48.750;9.314;2022-07-29T05:17:28;7.13;;;6.53;;
40675;SDS011;26359;48.750;9.314;2022-07-29T05:19:53;7.95;;;7.28;;
40675;SDS011;26359;48.750;9.314;2022-07-29T05:22:19;7.60;;;6.93;;
40675;SDS011;26359;48.750;9.314;2022-07-29T05:24:45;7.15;;;6.38;;
40675;SDS011;26359;48.750;9.314;2022-07-29T05:27:11;8.68;;;6.60;;
40675;SDS011;26359;48.750;9.314;2022-07-29T05:29:36;9.93;;;6.68;;
40675;SDS011;26359;48.750;9.314;2022-07-29T05:32:03;7.10;;;6.32;;
40675;SDS011;26359;48.750;9.314;2022-07-29T05:34:29;8.07;;;7.20;;
40675;SDS011;26359;48.750;9.314;2022-07-29T05:36:54;6.40;;;5.80;;
40675;SDS011;26359;48.750;9.314;2022-07-29T05:39:20;7.50;;;6.82;;
40675;SDS011;26359;48.750;9.314;2022-07-29T05:41:45;7.18;;;6.47;;
40675;SDS011;26359;48.750;9.314;2022-07-29T05:44:11;7.18;;;6.65;;
40675;SDS011;26359;48.750;9.314;2022-07-29T05:46:38;7.30;;;6.28;;
40675;SDS011;26359;48.750;9.314;2022-07-29T05:49:04;8.50;;;7.10;;
40675;SDS011;26359;48.750;9.314;2022-07-29T05:51:31;7.15;;;6.50;;
40675;SDS011;26359;48.750;9.314;2022-07-29T05:53:57;8.45;;;7.53;;
40675;SDS011;26359;48.750;9.314;2022-07-29T05:56:23;7.55;;;6.95;;
40675;SDS011;26359;48.750;9.314;2022-07-29T05:58:49;6.90;;;6.40;;
40675;SDS011;26359;48.750;9.314;2022-07-29T06:01:14;6.85;;;6.13;;
40675;SDS011;26359;48.750;9.314;2022-07-29T06:03:40;8.90;;;6.43;;
40675;SDS011;26359;48.750;9.314;2022-07-29T06:06:06;6.93;;;6.05;;
40675;SDS011;26359;48.750;9.314;2022-07-29T06:08:32;6.47;;;5.97;;
40675;SDS011;26359;48.750;9.314;2022-07-29T06:10:59;6.90;;;6.38;;
40675;SDS011;26359;48.750;9.314;2022-07-29T06:13:25;9.75;;;7.30;;
40675;SDS011;26359;48.750;9.314;2022-07-29T06:15:50;7.18;;;6.45;;
40675;SDS011;26359;48.750;9.314;2022-07-29T06:18:16;8.50;;;6.80;;
40675;SDS011;26359;48.750;9.314;2022-07-29T06:20:41;7.70;;;6.97;;
40675;SDS011;26359;48.750;9.314;2022-07-29T06:23:07;8.20;;;6.38;;
40675;SDS011;26359;48.750;9.314;2022-07-29T06:25:32;10.13;;;7.60;;
40675;SDS011;26359;48.750;9.314;2022-07-29T06:28:00;7.18;;;6.53;;
40675;SDS011;26359;48.750;9.314;2022-07-29T06:30:25;8.02;;;6.38;;
40675;SDS011;26359;48.750;9.314;2022-07-29T06:32:51;7.32;;;6.38;;
40675;SDS011;26359;48.750;9.314;2022-07-29T06:35:17;7.72;;;5.97;;
40675;SDS011;26359;48.750;9.314;2022-07-29T06:37:43;7.30;;;6.60;;
40675;SDS011;26359;48.750;9.314;2022-07-29T06:40:08;6.22;;;5.72;;
40675;SDS011;26359;48.750;9.314;2022-07-29T06:42:53;19.38;;;7.35;;
40675;SDS011;26359;48.750;9.314;2022-07-29T06:45:18;6.55;;;5.70;;
40675;SDS011;26359;48.750;9.314;2022-07-29T06:47:44;6.72;;;5.97;;
40675;SDS011;26359;48.750;9.314;2022-07-29T06:50:09;5.93;;;5.13;;
40675;SDS011;26359;48.750;9.314;2022-07-29T06:52:37;6.65;;;5.65;;
40675;SDS011;26359;48.750;9.314;2022-07-29T06:55:04;6.05;;;5.43;;
40675;SDS011;26359;48.750;9.314;2022-07-29T06:57:30;5.32;;;4.93;;
40675;SDS011;26359;48.750;9.314;2022-07-29T06:59:58;6.43;;;5.82;;
40675;SDS011;26359;48.750;9.314;2022-07-29T07:02:24;8.52;;;5.97;;
40675;SDS011;26359;48.750;9.314;2022-07-29T07:04:49;5.88;;;5.35;;
40675;SDS011;26359;48.750;9.314;2022-07-29T07:07:15;5.80;;;5.28;;
40675;SDS011;26359;48.750;9.314;2022-07-29T07:09:40;5.70;;;5.20;;
40675;SDS011;26359;48.750;9.314;2022-07-29T07:12:06;5.80;;;5.00;;
40675;SDS011;26359;48.750;9.314;2022-07-29T07:14:32;5.15;;;4.75;;
40675;SDS011;26359;48.750;9.314;2022-07-29T07:16:58;5.55;;;5.15;;
40675;SDS011;26359;48.750;9.314;2022-07-29T07:19:25;6.30;;;5.80;;
40675;SDS011;26359;48.750;9.314;2022-07-29T07:21:51;5.93;;;5.43;;
40675;SDS011;26359;48.750;9.314;2022-07-29T07:24:17;6.55;;;6.05;;
40675;SDS011;26359;48.750;9.314;2022-07-29T07:26:43;5.60;;;5.10;;
40675;SDS011;26359;48.750;9.314;2022-07-29T07:29:08;6.07;;;5.28;;
40675;SDS011;26359;48.750;9.314;2022-07-29T07:31:35;6.03;;;4.90;;
40675;SDS011;26359;48.750;9.314;2022-07-29T07:34:01;5.40;;;4.90;;
40675;SDS011;26359;48.750;9.314;2022-07-29T07:36:27;5.50;;;5.00;;
40675;SDS011;26359;48.750;9.314;2022-07-29T07:38:52;5.68;;;5.03;;
40675;SDS011;26359;48.750;9.314;2022-07-29T07:41:18;5.90;;;4.70;;
40675;SDS011;26359;48.750;9.314;2022-07-29T07:43:43;5.80;;;5.15;;
40675;SDS011;26359;48.750;9.314;2022-07-29T07:46:09;5.70;;;5.20;;
40675;SDS011;26359;48.750;9.314;2022-07-29T07:48:34;6.30;;;5.70;;
40675;SDS011;26359;48.750;9.314;2022-07-29T07:51:00;5.60;;;5.10;;
40675;SDS011;26359;48.750;9.314;2022-07-29T07:53:26;5.40;;;4.97;;
40675;SDS011;26359;48.750;9.314;2022-07-29T07:55:52;5.75;;;5.20;;
40675;SDS011;26359;48.750;9.314;2022-07-29T07:58:18;5.40;;;4.88;;
40675;SDS011;26359;48.750;9.314;2022-07-29T08:00:43;5.82;;;5.07;;
40675;SDS011;26359;48.750;9.314;2022-07-29T08:03:09;5.63;;;5.10;;
40675;SDS011;26359;48.750;9.314;2022-07-29T08:05:37;5.80;;;5.10;;
40675;SDS011;26359;48.750;9.314;2022-07-29T08:08:03;6.40;;;5.13;;
40675;SDS011;26359;48.750;9.314;2022-07-29T08:10:29;5.30;;;4.90;;
40675;SDS011;26359;48.750;9.314;2022-07-29T08:13:13;5.10;;;4.50;;
40675;SDS011;26359;48.750;9.314;2022-07-29T08:15:39;5.45;;;5.05;;
40675;SDS011;26359;48.750;9.314;2022-07-29T08:18:06;5.75;;;5.07;;
40675;SDS011;26359;48.750;9.314;2022-07-29T08:20:31;5.68;;;5.07;;
40675;SDS011;26359;48.750;9.314;2022-07-29T08:23:00;6.40;;;4.35;;
40675;SDS011;26359;48.750;9.314;2022-07-29T08:25:26;5.43;;;4.82;;
40675;SDS011;26359;48.750;9.314;2022-07-29T08:27:51;4.88;;;4.35;;
40675;SDS011;26359;48.750;9.314;2022-07-29T08:30:17;5.25;;;4.60;;
40675;SDS011;26359;48.750;9.314;2022-07-29T08:32:42;6.00;;;5.18;;
40675;SDS011;26359;48.750;9.314;2022-07-29T08:35:08;5.15;;;4.50;;
40675;SDS011;26359;48.750;9.314;2022-07-29T08:37:34;5.78;;;5.13;;
40675;SDS011;26359;48.750;9.314;2022-07-29T08:39:59;6.30;;;5.70;;
40675;SDS011;26359;48.750;9.314;2022-07-29T08:42:25;6.60;;;5.07;;
40675;SDS011;26359;48.750;9.314;2022-07-29T08:44:50;5.32;;;4.70;;
40675;SDS011;26359;48.750;9.314;2022-07-29T08:47:16;5.28;;;4.88;;
40675;SDS011;26359;48.750;9.314;2022-07-29T08:49:41;6.28;;;5.50;;
40675;SDS011;26359;48.750;9.314;2022-07-29T08:52:09;6.53;;;6.03;;
40675;SDS011;26359;48.750;9.314;2022-07-29T08:54:36;5.80;;;5.15;;
40675;SDS011;26359;48.750;9.314;2022-07-29T08:57:02;5.72;;;5.22;;
40675;SDS011;26359;48.750;9.314;2022-07-29T08:59:28;6.70;;;5.90;;
40675;SDS011;26359;48.750;9.314;2022-07-29T09:01:57;6.65;;;6.15;;
40675;SDS011;26359;48.750;9.314;2022-07-29T09:04:25;6.35;;;5.43;;
40675;SDS011;26359;48.750;9.314;2022-07-29T09:06:54;5.60;;;5.20;;
40675;SDS011;26359;48.750;9.314;2022-07-29T09:09:24;6.10;;;5.28;;
40675;SDS011;26359;48.750;9.314;2022-07-29T09:11:50;5.25;;;4.75;;
40675;SDS011;26359;48.750;9.314;2022-07-29T09:14:16;9.05;;;6.22;;
40675;SDS011;26359;48.750;9.314;2022-07-29T09:16:45;6.32;;;5.90;;
40675;SDS011;26359;48.750;9.314;2022-07-29T09:19:33;6.25;;;5.85;;
40675;SDS011;26359;48.750;9.314;2022-07-29T09:22:00;7.25;;;6.20;;
40675;SDS011;26359;48.750;9.314;2022-07-29T09:24:36;7.63;;;6.93;;
40675;SDS011;26359;48.750;9.314;2022-07-29T09:27:22;7.00;;;6.38;;
40675;SDS011;26359;48.750;9.314;2022-07-29T09:30:04;7.20;;;6.10;;
40675;SDS011;26359;48.750;9.314;2022-07-29T09:32:32;5.97;;;5.47;;
40675;SDS011;26359;48.750;9.314;2022-07-29T09:35:18;8.82;;;6.97;;
40675;SDS011;26359;48.750;9.314;2022-07-29T09:37:45;7.80;;;7.10;;
40675;SDS011;26359;48.750;9.314;2022-07-29T09:40:15;7.75;;;6.55;;
40675;SDS011;26359;48.750;9.314;2022-07-29T09:42:42;7.07;;;5.20;;
40675;SDS011;26359;48.750;9.314;2022-07-29T09:45:08;7.72;;;7.03;;
40675;SDS011;26359;48.750;9.314;2022-07-29T09:47:40;10.80;;;9.90;;
40675;SDS011;26359;48.750;9.314;2022-07-29T09:50:07;11.50;;;10.50;;
40675;SDS011;26359;48.750;9.314;2022-07-29T09:52:41;9.52;;;8.80;;
40675;SDS011;26359;48.750;9.314;2022-07-29T09:55:13;10.15;;;9.40;;
40675;SDS011;26359;48.750;9.314;2022-07-29T09:57:39;8.38;;;7.65;;
40675;SDS011;26359;48.750;9.314;2022-07-29T10:00:06;7.90;;;7.10;;
40675;SDS011;26359;48.750;9.314;2022-07-29T10:02:37;7.28;;;6.05;;
40675;SDS011;26359;48.750;9.314;2022-07-29T10:05:05;6.90;;;6.30;;
40675;SDS011;26359;48.750;9.314;2022-07-29T10:07:58;6.70;;;5.82;;
40675;SDS011;26359;48.750;9.314;2022-07-29T10:10:25;7.75;;;7.07;;
40675;SDS011;26359;48.750;9.314;2022-07-29T10:12:56;9.10;;;8.23;;
40675;SDS011;26359;48.750;9.314;2022-07-29T10:15:26;8.63;;;7.93;;
40675;SDS011;26359;48.750;9.314;2022-07-29T10:17:54;8.43;;;7.70;;
40675;SDS011;26359;48.750;9.314;2022-07-29T10:20:20;7.88;;;7.20;;
40675;SDS011;26359;48.750;9.314;2022-07-29T10:22:47;8.15;;;7.35;;
40675;SDS011;26359;48.750;9.314;2022-07-29T10:25:14;9.43;;;8.73;;
40675;SDS011;26359;48.750;9.314;2022-07-29T10:27:40;9.30;;;8.52;;
40675;SDS011;26359;48.750;9.314;2022-07-29T10:30:07;9.25;;;8.25;;
40675;SDS011;26359;48.750;9.314;2022-07-29T10:40:38;9.48;;;8.52;;
40675;SDS011;26359;48.750;9.314;2022-07-29T10:43:32;10.27;;;9.45;;
40675;SDS011;26359;48.750;9.314;2022-07-29T10:46:01;8.30;;;7.50;;
40675;SDS011;26359;48.750;9.314;2022-07-29T10:48:28;8.00;;;7.25;;
40675;SDS011;26359;48.750;9.314;2022-07-29T10:53:45;8.30;;;7.60;;
40675;SDS011;26359;48.750;9.314;2022-07-29T10:56:29;8.90;;;8.02;;
40675;SDS011;26359;48.750;9.314;2022-07-29T11:01:43;8.93;;;8.23;;
40675;SDS011;26359;48.750;9.314;2022-07-29T11:04:10;9.98;;;8.90;;
40675;SDS011;26359;48.750;9.314;2022-07-29T11:09:29;10.88;;;9.88;;
40675;SDS011;26359;48.750;9.314;2022-07-29T11:11:55;10.52;;;9.73;;
40675;SDS011;26359;48.750;9.314;2022-07-29T11:17:26;8.02;;;7.32;;
40675;SDS011;26359;48.750;9.314;2022-07-29T11:19:58;7.85;;;7.15;;
40675;SDS011;26359;48.750;9.314;2022-07-29T11:23:01;16.95;;;15.90;;
40675;SDS011;26359;48.750;9.314;2022-07-29T11:25:41;9.35;;;7.38;;
40675;SDS011;26359;48.750;9.314;2022-07-29T11:28:12;8.23;;;6.90;;
40675;SDS011;26359;48.750;9.314;2022-07-29T11:30:48;18.33;;;10.50;;
40675;SDS011;26359;48.750;9.314;2022-07-29T11:33:30;19.48;;;16.63;;
40675;SDS011;26359;48.750;9.314;2022-07-29T11:36:06;8.32;;;4.97;;
40675;SDS011;26359;48.750;9.314;2022-07-29T11:38:36;5.38;;;4.80;;
40675;SDS011;26359;48.750;9.314;2022-07-29T11:43:58;5.15;;;3.15;;
40675;SDS011;26359;48.750;9.314;2022-07-29T11:46:43;5.10;;;3.35;;
40675;SDS011;26359;48.750;9.314;2022-07-29T11:49:11;5.15;;;3.00;;
40675;SDS011;26359;48.750;9.314;2022-07-29T11:51:38;3.33;;;2.30;;
40675;SDS011;26359;48.750;9.314;2022-07-29T11:54:04;2.30;;;2.00;;
40675;SDS011;26359;48.750;9.314;2022-07-29T11:56:33;2.50;;;1.80;;
40675;SDS011;26359;48.750;9.314;2022-07-29T11:59:06;3.40;;;2.53;;
40675;SDS011;26359;48.750;9.314;2022-07-29T12:01:34;3.45;;;2.50;;
40675;SDS011;26359;48.750;9.314;2022-07-29T12:04:03;2.58;;;2.00;;
40675;SDS011;26359;48.750;9.314;2022-07-29T12:06:30;2.00;;;1.55;;
40675;SDS011;26359;48.750;9.314;2022-07-29T12:08:56;1.70;;;1.48;;
40675;SDS011;26359;48.750;9.314;2022-07-29T12:11:21;2.53;;;1.70;;
40675;SDS011;26359;48.750;9.314;2022-07-29T12:13:47;2.67;;;1.63;;
40675;SDS011;26359;48.750;9.314;2022-07-29T12:16:13;2.17;;;1.00;;
40675;SDS011;26359;48.750;9.314;2022-07-29T12:18:39;1.48;;;1.38;;
40675;SDS011;26359;48.750;9.314;2022-07-29T12:21:04;1.90;;;1.40;;
40675;SDS011;26359;48.750;9.314;2022-07-29T12:23:30;1.65;;;0.90;;
40675;SDS011;26359;48.750;9.314;2022-07-29T12:25:57;2.88;;;1.10;;
40675;SDS011;26359;48.750;9.314;2022-07-29T12:28:23;1.40;;;1.30;;
40675;SDS011;26359;48.750;9.314;2022-07-29T12:30:49;2.08;;;1.08;;
40675;SDS011;26359;48.750;9.314;2022-07-29T12:35:46;1.00;;;0.90;;
40675;SDS011;26359;48.750;9.314;2022-07-29T12:38:16;1.55;;;1.00;;
40675;SDS011;26359;48.750;9.314;2022-07-29T12:40:43;0.82;;;0.65;;
40675;SDS011;26359;48.750;9.314;2022-07-29T12:43:11;1.33;;;0.70;;
40675;SDS011;26359;48.750;9.314;2022-07-29T12:45:40;0.98;;;0.50;;
40675;SDS011;26359;48.750;9.314;2022-07-29T12:48:07;1.55;;;0.40;;
40675;SDS011;26359;48.750;9.314;2022-07-29T12:50:34;0.90;;;0.50;;
40675;SDS011;26359;48.750;9.314;2022-07-29T12:53:10;0.82;;;0.40;;
40675;SDS011;26359;48.750;9.314;2022-07-29T12:55:45;0.65;;;0.40;;
40675;SDS011;26359;48.750;9.314;2022-07-29T13:01:16;0.73;;;0.40;;
40675;SDS011;26359;48.750;9.314;2022-07-29T13:03:58;0.47;;;0.30;;
40675;SDS011;26359;48.750;9.314;2022-07-29T13:14:12;1.80;;;0.30;;
40675;SDS011;26359;48.750;9.314;2022-07-29T13:19:41;0.45;;;0.30;;
40675;SDS011;26359;48.750;9.314;2022-07-29T13:22:07;0.50;;;0.32;;
40675;SDS011;26359;48.750;9.314;2022-07-29T13:24:34;0.63;;;0.40;;
40675;SDS011;26359;48.750;9.314;2022-07-29T13:27:17;0.38;;;0.20;;
40675;SDS011;26359;48.750;9.314;2022-07-29T13:29:44;0.85;;;0.20;;
40675;SDS011;26359;48.750;9.314;2022-07-29T13:32:10;0.60;;;0.30;;
40675;SDS011;26359;48.750;9.314;2022-07-29T13:34:36;0.30;;;0.30;;
40675;SDS011;26359;48.750;9.314;2022-07-29T13:37:02;1.13;;;0.30;;
40675;SDS011;26359;48.750;9.314;2022-07-29T13:39:27;0.57;;;0.30;;
40675;SDS011;26359;48.750;9.314;2022-07-29T13:41:53;0.50;;;0.40;;
40675;SDS011;26359;48.750;9.314;2022-07-29T13:44:18;0.65;;;0.30;;
40675;SDS011;26359;48.750;9.314;2022-07-29T13:46:44;0.63;;;0.35;;
40675;SDS011;26359;48.750;9.314;2022-07-29T13:49:10;0.30;;;0.30;;
40675;SDS011;26359;48.750;9.314;2022-07-29T13:51:36;0.55;;;0.30;;
40675;SDS011;26359;48.750;9.314;2022-07-29T13:54:02;0.50;;;0.40;;
40675;SDS011;26359;48.750;9.314;2022-07-29T13:56:28;0.50;;;0.40;;
40675;SDS011;26359;48.750;9.314;2022-07-29T13:58:53;0.40;;;0.30;;
40675;SDS011;26359;48.750;9.314;2022-07-29T14:01:19;1.20;;;0.50;;
40675;SDS011;26359;48.750;9.314;2022-07-29T14:03:44;0.65;;;0.40;;
40675;SDS011;26359;48.750;9.314;2022-07-29T14:06:10;0.90;;;0.40;;
40675;SDS011;26359;48.750;9.314;2022-07-29T14:08:35;0.75;;;0.30;;
40675;SDS011;26359;48.750;9.314;2022-07-29T14:11:01;0.50;;;0.30;;
40675;SDS011;26359;48.750;9.314;2022-07-29T14:13:26;0.40;;;0.30;;
40675;SDS011;26359;48.750;9.314;2022-07-29T14:15:52;0.55;;;0.30;;
40675;SDS011;26359;48.750;9.314;2022-07-29T14:18:18;0.30;;;0.20;;
40675;SDS011;26359;48.750;9.314;2022-07-29T14:20:43;0.40;;;0.30;;
40675;SDS011;26359;48.750;9.314;2022-07-29T14:23:09;0.55;;;0.40;;
40675;SDS011;26359;48.750;9.314;2022-07-29T14:25:34;0.63;;;0.40;;
40675;SDS011;26359;48.750;9.314;2022-07-29T14:28:00;1.52;;;0.50;;
40675;SDS011;26359;48.750;9.314;2022-07-29T14:30:26;0.65;;;0.40;;
40675;SDS011;26359;48.750;9.314;2022-07-29T14:32:52;0.75;;;0.60;;
40675;SDS011;26359;48.750;9.314;2022-07-29T14:35:17;0.65;;;0.50;;
40675;SDS011;26359;48.750;9.314;2022-07-29T14:37:43;0.60;;;0.50;;
40675;SDS011;26359;48.750;9.314;2022-07-29T14:40:09;0.90;;;0.50;;
40675;SDS011;26359;48.750;9.314;2022-07-29T14:42:35;0.70;;;0.60;;
40675;SDS011;26359;48.750;9.314;2022-07-29T14:45:02;0.60;;;0.50;;
40675;SDS011;26359;48.750;9.314;2022-07-29T14:47:28;0.70;;;0.60;;
40675;SDS011;26359;48.750;9.314;2022-07-29T14:49:53;0.85;;;0.73;;
40675;SDS011;26359;48.750;9.314;2022-07-29T14:52:19;1.25;;;0.65;;
40675;SDS011;26359;48.750;9.314;2022-07-29T14:54:45;0.88;;;0.60;;
40675;SDS011;26359;48.750;9.314;2022-07-29T14:57:10;1.17;;;0.70;;
40675;SDS011;26359;48.750;9.314;2022-07-29T14:59:36;1.00;;;0.65;;
40675;SDS011;26359;48.750;9.314;2022-07-29T15:02:01;0.95;;;0.60;;
40675;SDS011;26359;48.750;9.314;2022-07-29T15:04:27;1.30;;;0.80;;
40675;SDS011;26359;48.750;9.314;2022-07-29T15:06:52;0.70;;;0.60;;
40675;SDS011;26359;48.750;9.314;2022-07-29T15:09:18;0.80;;;0.60;;
40675;SDS011;26359;48.750;9.314;2022-07-29T15:11:43;1.05;;;0.70;;
40675;SDS011;26359;48.750;9.314;2022-07-29T15:14:09;1.15;;;0.75;;
40675;SDS011;26359;48.750;9.314;2022-07-29T15:16:35;0.80;;;0.68;;
40675;SDS011;26359;48.750;9.314;2022-07-29T15:19:02;0.90;;;0.80;;
40675;SDS011;26359;48.750;9.314;2022-07-29T15:21:28;2.42;;;0.90;;
40675;SDS011;26359;48.750;9.314;2022-07-29T15:23:53;1.40;;;0.82;;
40675;SDS011;26359;48.750;9.314;2022-07-29T15:26:19;0.90;;;0.80;;
40675;SDS011;26359;48.750;9.314;2022-07-29T15:28:44;0.68;;;0.60;;
40675;SDS011;26359;48.750;9.314;2022-07-29T15:31:10;0.70;;;0.70;;
40675;SDS011;26359;48.750;9.314;2022-07-29T15:33:35;0.90;;;0.77;;
40675;SDS011;26359;48.750;9.314;2022-07-29T15:36:01;0.90;;;0.70;;